Time;durP1;ratioP1;P1;durP2;ratioP2;P2;SDS_P1;SDS_P2;PMS_P1;PMS_P2;Temp;Humidity;BMP_temperature;BMP_pressure;BME280_temperature;BME280_humidity;BME280_pressure;Samples;Min_cycle;Max_cycle;Signal;HPM_P1;HPM_P2
2021/12/13 00:00:25;;;;;;;54.95;15.57;;;11.10;99.90;;;;;;5108585;28;20054;-71
2021/12/13 00:02:55;;;;;;;39.38;14.18;;;11.10;99.90;;;;;;5105109;28;20044;-72
2021/12/13 00:05:24;;;;;;;44.17;14.25;;;11.10;99.90;;;;;;5101875;28;20048;-72
2021/12/13 00:07:57;;;;;;;37.72;13.15;;;12.30;99.90;;;;;;5107714;28;20051;-72
2021/12/13 00:10:49;;;;;;;41.30;12.55;;;10.80;99.90;;;;;;5107720;28;20051;-72
2021/12/13 00:13:24;;;;;;;27.50;10.63;;;11.90;99.90;;;;;;5105622;28;20566;-71
2021/12/13 00:15:56;;;;;;;36.03;12.75;;;10.40;99.90;;;;;;5121020;27;20042;-72
2021/12/13 00:18:29;;;;;;;39.95;12.48;;;11.90;99.90;;;;;;5110722;28;20039;-72
2021/12/13 00:21:15;;;;;;;37.78;13.60;;;12.20;99.90;;;;;;5106761;28;20032;-71
2021/12/13 00:23:52;;;;;;;38.75;13.90;;;10.90;99.90;;;;;;5109865;28;20067;-71
2021/12/13 00:26:43;;;;;;;41.38;14.35;;;12.50;99.90;;;;;;5088155;28;20061;-72
2021/12/13 00:29:14;;;;;;;37.13;13.93;;;12.50;99.90;;;;;;5106329;28;20048;-71
2021/12/13 00:32:03;;;;;;;32.47;13.65;;;12.20;99.90;;;;;;5101154;28;20036;-71
2021/12/13 00:34:32;;;;;;;39.47;14.43;;;10.60;99.90;;;;;;5108975;28;20146;-72
2021/12/13 00:37:07;;;;;;;35.05;13.30;;;10.50;99.90;;;;;;5104856;28;20380;-72
2021/12/13 00:39:45;;;;;;;41.15;13.85;;;12.30;99.90;;;;;;5094766;28;20118;-72
2021/12/13 00:42:12;;;;;;;38.10;13.55;;;12.40;99.90;;;;;;5103834;28;20035;-72
2021/12/13 00:44:46;;;;;;;39.45;13.65;;;10.60;99.90;;;;;;5099589;28;20059;-72
2021/12/13 00:47:19;;;;;;;44.92;14.65;;;10.70;99.90;;;;;;5104685;28;20490;-72
2021/12/13 00:49:53;;;;;;;34.78;14.25;;;10.70;99.90;;;;;;5104033;28;20044;-72
2021/12/13 00:52:20;;;;;;;36.47;14.23;;;10.80;99.90;;;;;;5100761;28;20048;-72
2021/12/13 00:54:46;;;;;;;43.13;16.42;;;11.20;99.90;;;;;;5100580;28;20048;-71
2021/12/13 00:57:38;;;;;;;37.08;14.30;;;11.90;99.90;;;;;;5108314;28;20058;-71
2021/12/13 01:00:10;;;;;;;33.83;13.65;;;12.00;99.90;;;;;;5092821;28;20027;-71
2021/12/13 01:03:00;;;;;;;36.75;14.27;;;10.50;99.90;;;;;;5095803;28;20376;-71
2021/12/13 01:05:35;;;;;;;41.20;15.32;;;12.20;99.90;;;;;;5102673;28;20542;-71
2021/12/13 01:08:08;;;;;;;35.72;14.70;;;10.40;99.90;;;;;;5108216;27;20526;-72
2021/12/13 01:10:51;;;;;;;42.38;15.02;;;10.40;99.90;;;;;;5099311;28;20051;-71
2021/12/13 01:13:28;;;;;;;40.80;15.45;;;12.40;99.90;;;;;;5108014;28;20046;-72
2021/12/13 01:16:14;;;;;;;39.60;15.13;;;12.10;99.90;;;;;;5101062;28;20047;-72
2021/12/13 01:21:58;;;;;;;41.85;15.77;;;11.00;99.90;;;;;;5104784;28;20052;-72
2021/12/13 01:27:36;;;;;;;42.58;16.52;;;12.10;99.90;;;;;;5105810;28;20497;-72
2021/12/13 01:30:09;;;;;;;47.17;17.40;;;10.40;99.90;;;;;;5103997;28;20043;-72
2021/12/13 01:32:38;;;;;;;51.22;18.27;;;11.40;99.90;;;;;;5108061;28;20048;-72
2021/12/13 01:35:09;;;;;;;57.28;17.83;;;12.00;99.90;;;;;;5107371;28;20076;-72
2021/12/13 01:37:35;;;;;;;53.03;18.42;;;12.30;99.90;;;;;;5107711;28;20035;-73
2021/12/13 01:40:09;;;;;;;50.03;16.83;;;11.60;99.90;;;;;;5123014;27;20047;-72
2021/12/13 01:42:35;;;;;;;53.45;17.58;;;10.40;99.90;;;;;;5106071;28;20043;-72
2021/12/13 01:45:09;;;;;;;48.42;17.33;;;10.80;99.90;;;;;;5107625;28;20407;-72
2021/12/13 01:47:39;;;;;;;49.03;16.77;;;11.40;99.90;;;;;;5109247;28;20050;-73
2021/12/13 01:50:16;;;;;;;53.10;16.30;;;11.30;99.90;;;;;;5106434;28;20036;-72
2021/12/13 01:52:44;;;;;;;41.15;14.77;;;11.00;99.90;;;;;;5105887;28;20052;-72
2021/12/13 01:55:24;;;;;;;39.60;14.07;;;10.50;99.90;;;;;;5105636;28;20044;-72
2021/12/13 01:58:08;;;;;;;44.70;14.65;;;11.80;99.90;;;;;;5105852;28;20055;-73
2021/12/13 02:01:12;;;;;;;38.95;13.45;;;11.60;99.90;;;;;;5105994;28;20499;-73
2021/12/13 02:03:44;;;;;;;42.95;13.70;;;12.30;99.90;;;;;;5103217;28;20138;-73
2021/12/13 02:06:12;;;;;;;34.88;11.90;;;11.30;99.90;;;;;;5110698;28;20035;-72
2021/12/13 02:08:38;;;;;;;38.53;12.82;;;10.70;99.90;;;;;;5099985;28;20126;-72
2021/12/13 02:11:06;;;;;;;38.20;14.45;;;10.40;99.90;;;;;;5106523;28;20586;-73
2021/12/13 02:13:42;;;;;;;39.50;13.63;;;11.00;99.90;;;;;;5098108;28;21093;-73
2021/12/13 02:18:58;;;;;;;39.15;13.52;;;11.60;99.90;;;;;;5105342;28;20100;-73
2021/12/13 02:21:32;;;;;;;41.50;14.70;;;11.10;99.90;;;;;;5104021;28;20047;-72
2021/12/13 02:24:04;;;;;;;37.80;13.70;;;10.90;99.90;;;;;;5107015;28;20077;-72
2021/12/13 02:26:33;;;;;;;34.75;14.27;;;10.40;99.90;;;;;;5106138;28;20074;-72
2021/12/13 02:29:17;;;;;;;39.08;14.60;;;12.20;99.90;;;;;;5106863;28;20067;-72
2021/12/13 02:31:45;;;;;;;46.83;16.17;;;12.00;99.90;;;;;;5087139;28;20044;-72
2021/12/13 02:34:14;;;;;;;46.05;15.60;;;12.30;99.90;;;;;;5092183;28;20039;-72
2021/12/13 02:36:43;;;;;;;40.30;15.05;;;11.80;99.90;;;;;;5110643;28;20074;-72
2021/12/13 02:39:20;;;;;;;42.83;14.77;;;11.90;99.90;;;;;;5110113;28;20093;-72
2021/12/13 02:41:48;;;;;;;43.22;17.35;;;11.50;99.90;;;;;;5109623;28;20043;-71
2021/12/13 02:44:23;;;;;;;49.83;17.23;;;10.90;99.90;;;;;;5110722;28;20525;-72
2021/12/13 02:46:49;;;;;;;;;;;11.00;99.90;;;;;;5093587;28;20047;-72
2021/12/13 02:49:17;;;;;;;49.00;18.13;;;10.50;99.90;;;;;;5109908;28;19938;-72
2021/12/13 02:51:58;;;;;;;41.15;17.38;;;11.60;99.90;;;;;;5091307;28;20498;-72
2021/12/13 02:54:26;;;;;;;47.42;18.45;;;12.60;99.90;;;;;;5106620;28;20854;-72
2021/12/13 02:56:59;;;;;;;40.70;17.55;;;10.70;99.90;;;;;;5093928;28;20373;-72
2021/12/13 02:59:29;;;;;;;52.67;20.55;;;10.20;99.90;;;;;;5112110;28;20110;-72
2021/12/13 03:02:01;;;;;;;50.00;19.25;;;11.00;99.90;;;;;;5107171;28;20118;-72
2021/12/13 03:04:29;;;;;;;50.90;18.58;;;11.50;99.90;;;;;;5112146;27;20040;-72
2021/12/13 03:06:55;;;;;;;51.28;19.77;;;11.00;99.90;;;;;;5107461;28;20044;-72
2021/12/13 03:09:25;;;;;;;51.60;19.30;;;10.70;99.90;;;;;;5109301;28;20122;-72
2021/12/13 03:11:52;;;;;;;46.70;18.75;;;10.90;99.90;;;;;;5088962;28;20031;-72
2021/12/13 03:14:32;;;;;;;52.97;21.08;;;11.10;99.90;;;;;;5107716;28;20375;-72
2021/12/13 03:17:06;;;;;;;46.33;20.02;;;12.60;99.90;;;;;;5108545;28;20036;-72
2021/12/13 03:19:35;;;;;;;46.10;19.00;;;12.60;99.90;;;;;;5109231;28;20051;-72
2021/12/13 03:22:19;;;;;;;49.33;19.85;;;12.60;99.90;;;;;;5108942;28;20044;-73
2021/12/13 03:25:11;;;;;;;47.83;19.85;;;10.90;99.90;;;;;;5104565;28;20075;-73
2021/12/13 03:27:51;;;;;;;52.17;21.10;;;10.90;99.90;;;;;;5109999;28;20058;-73
2021/12/13 03:30:27;;;;;;;47.97;19.40;;;12.40;99.90;;;;;;5108283;28;20063;-73
2021/12/13 03:33:06;;;;;;;50.70;20.17;;;12.50;99.90;;;;;;5110383;28;20071;-72
2021/12/13 03:36:04;;;;;;;57.80;22.23;;;10.90;99.90;;;;;;5105823;28;20306;-73
2021/12/13 03:38:37;;;;;;;56.03;21.58;;;11.70;99.90;;;;;;5106015;28;20403;-73
2021/12/13 03:41:11;;;;;;;48.40;20.38;;;10.20;99.90;;;;;;5105948;28;20042;-72
2021/12/13 03:43:46;;;;;;;40.90;19.30;;;12.60;99.90;;;;;;5107818;28;20052;-72
2021/12/13 03:46:14;;;;;;;58.05;22.83;;;11.10;99.90;;;;;;5104598;28;20058;-73
2021/12/13 03:48:43;;;;;;;56.33;21.52;;;12.50;99.90;;;;;;5109284;28;20151;-72
2021/12/13 03:51:14;;;;;;;48.63;20.60;;;10.70;99.90;;;;;;5094630;28;20039;-72
2021/12/13 03:53:48;;;;;;;45.05;19.75;;;11.50;99.90;;;;;;5107303;28;20062;-72
2021/12/13 03:56:38;;;;;;;40.00;17.35;;;10.40;99.90;;;;;;5106730;28;20118;-72
2021/12/13 03:59:15;;;;;;;43.22;16.70;;;12.10;99.90;;;;;;5105710;28;20039;-72
2021/12/13 04:01:49;;;;;;;35.88;15.35;;;10.70;99.90;;;;;;5088020;28;20042;-71
2021/12/13 04:04:26;;;;;;;35.72;15.55;;;11.20;99.90;;;;;;5109759;28;20039;-71
2021/12/13 04:07:00;;;;;;;39.08;15.30;;;10.10;99.90;;;;;;5107345;28;20469;-71
2021/12/13 04:09:28;;;;;;;34.15;14.73;;;11.20;99.90;;;;;;5109824;28;20547;-72
2021/12/13 04:11:57;;;;;;;32.53;14.15;;;10.10;99.90;;;;;;5106584;28;20043;-72
2021/12/13 04:14:30;;;;;;;29.83;13.40;;;12.20;99.90;;;;;;5112094;28;20159;-72
2021/12/13 04:17:05;;;;;;;31.83;13.98;;;10.80;99.90;;;;;;5107463;28;20048;-72
2021/12/13 04:19:51;;;;;;;28.95;12.77;;;12.30;99.90;;;;;;5106707;28;20032;-73
2021/12/13 04:22:19;;;;;;;32.00;12.38;;;10.00;99.90;;;;;;5107898;28;20115;-73
2021/12/13 04:24:59;;;;;;;27.85;12.27;;;12.50;99.90;;;;;;5109490;28;20046;-73
2021/12/13 04:27:29;;;;;;;28.15;11.77;;;11.00;99.90;;;;;;5106083;28;20051;-73
2021/12/13 04:29:59;;;;;;;24.23;11.85;;;11.60;99.90;;;;;;5088863;28;20043;-72
2021/12/13 04:32:32;;;;;;;20.77;10.35;;;9.90;99.90;;;;;;5109219;28;20043;-73
2021/12/13 04:35:03;;;;;;;24.90;10.60;;;11.50;99.90;;;;;;5109525;28;20079;-73
2021/12/13 04:37:34;;;;;;;16.88;9.10;;;10.30;99.90;;;;;;5098688;28;20040;-73
2021/12/13 04:40:10;;;;;;;19.20;8.85;;;11.50;99.90;;;;;;5103552;28;20028;-73
2021/12/13 04:42:36;;;;;;;20.27;8.98;;;11.20;99.90;;;;;;5109608;28;20043;-72
2021/12/13 04:45:15;;;;;;;18.45;8.52;;;12.10;99.90;;;;;;5089581;28;20039;-73
2021/12/13 04:47:48;;;;;;;13.45;6.90;;;12.20;99.90;;;;;;5105927;28;20112;-72
2021/12/13 04:50:22;;;;;;;16.85;7.45;;;11.90;99.90;;;;;;5104067;28;20096;-72
2021/12/13 04:52:48;;;;;;;14.95;6.82;;;10.30;99.90;;;;;;5103066;28;20052;-72
2021/12/13 04:55:27;;;;;;;13.32;6.00;;;11.50;99.90;;;;;;5108191;28;20044;-71
2021/12/13 04:57:56;;;;;;;15.45;6.50;;;11.00;99.90;;;;;;5106788;28;20521;-72
2021/12/13 05:00:25;;;;;;;14.55;5.53;;;11.80;99.90;;;;;;5102483;28;20364;-72
2021/12/13 05:02:57;;;;;;;9.35;5.03;;;12.10;99.90;;;;;;5108708;28;20139;-72
2021/12/13 05:05:23;;;;;;;16.80;5.47;;;10.80;99.90;;;;;;5088582;28;20051;-73
2021/12/13 05:07:51;;;;;;;12.00;5.22;;;11.20;99.90;;;;;;5106264;28;20040;-72
2021/12/13 05:10:18;;;;;;;9.40;4.57;;;11.60;99.90;;;;;;5102721;28;20059;-72
2021/12/13 05:12:58;;;;;;;8.77;4.85;;;10.40;99.90;;;;;;5100689;28;20038;-72
2021/12/13 05:15:26;;;;;;;7.05;4.30;;;11.60;99.90;;;;;;5089592;28;20036;-72
2021/12/13 05:17:53;;;;;;;7.38;4.28;;;10.60;99.90;;;;;;5091288;28;20075;-73
2021/12/13 05:20:25;;;;;;;9.30;4.43;;;10.60;99.90;;;;;;5091025;28;20035;-72
2021/12/13 05:22:59;;;;;;;8.20;4.25;;;10.80;99.90;;;;;;5086989;28;20040;-72
2021/12/13 05:25:39;;;;;;;7.70;3.72;;;11.40;99.90;;;;;;5104243;28;20043;-72
2021/12/13 05:28:07;;;;;;;12.65;4.90;;;10.20;99.90;;;;;;5106874;28;20035;-72
2021/12/13 05:30:35;;;;;;;9.55;5.13;;;10.20;99.90;;;;;;5086050;28;20059;-72
2021/12/13 05:33:05;;;;;;;8.75;4.60;;;11.00;99.90;;;;;;5107750;28;20111;-72
2021/12/13 05:35:43;;;;;;;7.72;4.13;;;10.40;99.90;;;;;;5098751;28;20109;-72
2021/12/13 05:38:32;;;;;;;8.52;4.20;;;9.90;99.90;;;;;;5098630;28;20058;-71
2021/12/13 05:41:01;;;;;;;8.85;4.20;;;10.60;99.90;;;;;;5102703;28;21248;-73
2021/12/13 05:43:32;;;;;;;7.45;4.75;;;11.70;99.90;;;;;;5110064;28;20047;-73
2021/12/13 05:46:14;;;;;;;6.55;4.28;;;11.70;99.90;;;;;;5108925;28;20048;-72
2021/12/13 05:48:43;;;;;;;10.00;4.93;;;11.20;99.90;;;;;;5107240;28;20085;-73
2021/12/13 05:51:45;;;;;;;9.18;4.93;;;11.20;99.90;;;;;;5105359;28;20070;-73
2021/12/13 05:54:20;;;;;;;9.48;5.03;;;11.00;99.90;;;;;;5107600;28;20058;-72
2021/12/13 05:56:53;;;;;;;9.38;5.10;;;10.50;99.90;;;;;;5095130;28;20126;-73
2021/12/13 05:59:32;;;;;;;11.27;5.63;;;10.20;99.90;;;;;;5108140;28;20114;-73
2021/12/13 06:01:57;;;;;;;10.27;6.03;;;10.00;99.90;;;;;;5104879;28;20040;-74
2021/12/13 06:04:35;;;;;;;10.10;5.80;;;11.20;99.90;;;;;;5106045;28;20096;-74
2021/12/13 06:07:11;;;;;;;9.95;6.07;;;11.00;99.90;;;;;;5105180;28;20522;-72
2021/12/13 06:09:43;;;;;;;14.95;7.57;;;10.30;99.90;;;;;;5109119;28;20126;-72
2021/12/13 06:12:23;;;;;;;14.13;7.03;;;10.20;99.90;;;;;;5105132;28;20566;-73
2021/12/13 06:14:50;;;;;;;11.13;6.75;;;11.60;99.90;;;;;;5107226;28;20047;-73
2021/12/13 06:17:37;;;;;;;12.77;6.55;;;9.90;99.90;;;;;;5104066;28;20039;-73
2021/12/13 06:20:08;;;;;;;11.05;7.10;;;9.90;99.90;;;;;;5108247;28;20144;-73
2021/12/13 06:22:35;;;;;;;13.82;6.85;;;11.70;99.90;;;;;;5088553;28;20043;-72
2021/12/13 06:25:15;;;;;;;13.38;7.78;;;11.40;99.90;;;;;;5090736;28;20043;-73
2021/12/13 06:27:51;;;;;;;15.18;8.05;;;10.50;99.90;;;;;;5106062;28;20059;-73
2021/12/13 06:30:16;;;;;;;15.30;7.70;;;11.80;99.90;;;;;;5105892;28;20039;-73
2021/12/13 06:32:54;;;;;;;16.60;7.18;;;11.50;99.90;;;;;;5105117;28;20040;-73
2021/12/13 06:35:42;;;;;;;12.20;7.95;;;9.70;99.90;;;;;;5076553;28;20641;-74
2021/12/13 06:38:26;;;;;;;15.85;7.10;;;11.40;99.90;;;;;;5091670;28;20072;-73
2021/12/13 06:40:54;;;;;;;14.63;8.40;;;11.40;99.90;;;;;;5108377;28;20071;-73
2021/12/13 06:43:33;;;;;;;12.95;7.15;;;11.60;99.90;;;;;;5088042;28;20122;-73
2021/12/13 06:46:02;;;;;;;13.70;7.40;;;11.70;99.90;;;;;;5102173;28;20039;-73
2021/12/13 06:48:41;;;;;;;12.75;7.25;;;11.20;99.90;;;;;;5106088;28;20083;-72
2021/12/13 06:51:10;;;;;;;13.32;7.65;;;10.00;99.90;;;;;;5105112;28;20039;-72
2021/12/13 06:53:37;;;;;;;13.63;7.40;;;10.90;99.90;;;;;;5107125;28;20059;-72
2021/12/13 06:56:26;;;;;;;11.43;7.63;;;10.30;99.90;;;;;;5098851;28;20059;-72
2021/12/13 06:58:58;;;;;;;13.10;7.75;;;10.60;99.90;;;;;;5106395;28;20035;-72
2021/12/13 07:01:27;;;;;;;16.02;7.68;;;11.40;99.90;;;;;;5109431;28;20071;-72
2021/12/13 07:04:09;;;;;;;11.85;7.47;;;11.40;99.90;;;;;;5108332;28;20114;-72
2021/12/13 07:06:36;;;;;;;12.60;7.80;;;11.10;99.90;;;;;;5106115;28;20096;-72
2021/12/13 07:09:13;;;;;;;11.82;7.40;;;9.80;99.90;;;;;;5090198;28;20047;-72
2021/12/13 07:11:47;;;;;;;14.15;8.40;;;9.80;99.90;;;;;;5104789;28;20046;-72
2021/12/13 07:14:14;;;;;;;13.03;7.90;;;11.40;99.90;;;;;;5105013;28;20484;-72
2021/12/13 07:16:50;;;;;;;13.57;8.02;;;10.50;99.90;;;;;;5107699;28;20478;-72
2021/12/13 07:19:26;;;;;;;13.57;8.38;;;10.00;99.90;;;;;;5107513;28;20055;-72
2021/12/13 07:21:55;;;;;;;14.23;7.82;;;10.00;99.90;;;;;;5108563;28;20157;-72
2021/12/13 07:24:32;;;;;;;12.52;8.07;;;10.30;99.90;;;;;;5098555;28;20051;-73
2021/12/13 07:27:06;;;;;;;14.63;8.63;;;10.60;99.90;;;;;;5107711;28;20035;-73
2021/12/13 07:30:05;;;;;;;13.70;7.85;;;11.00;99.90;;;;;;5109232;28;20036;-65
2021/12/13 07:32:35;;;;;;;13.48;7.72;;;11.20;99.90;;;;;;5111126;28;20040;-72
2021/12/13 07:35:11;;;;;;;14.13;8.43;;;9.90;99.90;;;;;;5081764;28;20127;-73
2021/12/13 07:37:39;;;;;;;15.10;8.07;;;11.10;99.90;;;;;;5105571;28;20122;-72
2021/12/13 07:40:27;;;;;;;14.85;8.65;;;10.00;99.90;;;;;;5107929;28;20044;-73
2021/12/13 07:42:55;;;;;;;14.30;8.88;;;11.10;99.90;;;;;;5109705;28;20055;-73
2021/12/13 07:45:25;;;;;;;15.50;8.30;;;10.00;99.90;;;;;;5107937;28;20074;-73
2021/12/13 07:47:52;;;;;;;15.70;8.77;;;10.60;99.90;;;;;;5072855;28;20048;-72
2021/12/13 07:50:21;;;;;;;14.60;8.85;;;10.20;99.90;;;;;;5092187;28;20052;-73
2021/12/13 07:52:57;;;;;;;15.13;8.75;;;10.90;99.90;;;;;;5109061;28;20171;-72
2021/12/13 07:55:27;;;;;;;14.27;8.82;;;11.10;99.90;;;;;;5108338;28;21710;-74
2021/12/13 07:57:55;;;;;;;14.70;9.48;;;9.60;99.90;;;;;;5112614;28;20040;-72
2021/12/13 08:00:30;;;;;;;15.20;9.18;;;9.90;99.90;;;;;;5104740;28;20039;-74
2021/12/13 08:03:12;;;;;;;14.38;9.10;;;10.70;99.90;;;;;;5110222;28;20051;-73
2021/12/13 08:05:44;;;;;;;15.73;9.57;;;9.60;99.90;;;;;;5110173;28;20040;-73
2021/12/13 08:08:22;;;;;;;19.15;10.43;;;10.50;99.90;;;;;;5107825;28;20058;-73
2021/12/13 08:10:51;;;;;;;17.08;9.60;;;10.00;99.90;;;;;;5110611;28;20047;-73
2021/12/13 08:13:21;;;;;;;13.57;9.90;;;10.80;99.90;;;;;;5112120;28;20122;-74
2021/12/13 08:15:55;;;;;;;18.10;10.35;;;10.80;99.90;;;;;;5111256;28;20118;-74
2021/12/13 08:18:30;;;;;;;21.15;12.27;;;11.10;99.90;;;;;;5111729;28;20439;-73
2021/12/13 08:21:24;;;;;;;17.95;10.55;;;10.90;99.90;;;;;;5111516;28;20394;-74
2021/12/13 08:23:54;;;;;;;20.83;12.90;;;10.60;99.90;;;;;;5078567;28;20108;-73
2021/12/13 08:26:34;;;;;;;16.75;11.85;;;9.80;99.90;;;;;;5111445;28;20039;-73
2021/12/13 08:29:03;;;;;;;16.92;10.93;;;9.80;99.90;;;;;;5110715;28;20051;-74
2021/12/13 08:31:33;;;;;;;19.05;12.25;;;10.50;99.90;;;;;;5090663;28;20062;-72
2021/12/13 08:34:22;;;;;;;22.67;13.15;;;9.80;99.90;;;;;;5109591;28;20036;-73
2021/12/13 08:36:50;;;;;;;19.55;11.75;;;11.00;99.90;;;;;;5110417;28;20047;-74
2021/12/13 08:39:20;;;;;;;22.27;13.30;;;9.90;99.90;;;;;;5099123;28;20504;-74
2021/12/13 08:41:51;;;;;;;21.67;13.25;;;9.80;99.90;;;;;;5109438;28;20047;-73
2021/12/13 08:44:22;;;;;;;22.90;13.77;;;10.80;99.90;;;;;;5101432;28;20383;-74
2021/12/13 08:46:57;;;;;;;21.15;13.40;;;10.10;99.90;;;;;;5089735;28;20039;-73
2021/12/13 08:49:26;;;;;;;19.13;12.55;;;10.20;99.90;;;;;;5092115;28;20043;-73
2021/12/13 08:51:55;;;;;;;19.95;13.52;;;10.70;99.90;;;;;;5110797;28;20387;-73
2021/12/13 08:54:53;;;;;;;22.20;14.02;;;10.70;99.90;;;;;;5111138;28;20395;-73
2021/12/13 08:57:46;;;;;;;18.33;14.05;;;10.10;99.90;;;;;;5109990;28;20124;-74
2021/12/13 09:00:12;;;;;;;22.58;14.93;;;10.20;99.90;;;;;;5104565;27;20042;-74
2021/12/13 09:02:44;;;;;;;26.05;15.32;;;10.90;99.90;;;;;;5110440;28;20039;-73
2021/12/13 09:05:22;;;;;;;20.33;13.65;;;10.40;99.90;;;;;;5110360;28;20529;-72
2021/12/13 09:08:00;;;;;;;24.33;15.77;;;10.20;99.90;;;;;;5109532;28;20062;-75
2021/12/13 09:11:08;;;;;;;22.40;15.40;;;10.10;99.90;;;;;;5081411;28;20040;-75
2021/12/13 09:13:45;;;;;;;24.55;16.10;;;10.00;99.90;;;;;;5085059;28;20077;-77
2021/12/13 09:16:13;;;;;;;22.13;16.02;;;10.00;99.90;;;;;;5110958;28;20131;-74
2021/12/13 09:18:39;;;;;;;25.73;16.05;;;10.40;99.90;;;;;;5104952;28;20071;-73
2021/12/13 09:21:07;;;;;;;22.67;15.85;;;10.20;99.90;;;;;;5106154;28;20113;-74
2021/12/13 09:23:43;;;;;;;23.05;16.35;;;10.20;99.90;;;;;;5107132;28;20040;-73
2021/12/13 09:26:14;;;;;;;23.05;16.05;;;10.80;99.90;;;;;;5090911;28;20364;-73
2021/12/13 09:28:56;;;;;;;25.05;15.57;;;10.30;99.90;;;;;;5099587;28;20091;-74
2021/12/13 09:31:39;;;;;;;24.60;16.90;;;10.40;99.90;;;;;;5098221;28;20461;-74
2021/12/13 09:34:19;;;;;;;26.55;15.75;;;10.20;99.90;;;;;;5103115;28;20035;-73
2021/12/13 09:36:49;;;;;;;26.35;16.23;;;10.70;99.90;;;;;;5109347;28;20449;-74
2021/12/13 09:39:27;;;;;;;26.83;16.88;;;10.40;99.90;;;;;;5106700;28;20126;-73
2021/12/13 09:41:59;;;;;;;25.38;15.20;;;10.30;99.90;;;;;;5096858;28;20043;-73
2021/12/13 09:44:31;;;;;;;26.13;16.05;;;10.40;99.90;;;;;;5106719;28;20067;-73
2021/12/13 09:47:09;;;;;;;28.52;16.15;;;10.00;99.90;;;;;;5104477;28;20043;-73
2021/12/13 09:49:45;;;;;;;22.25;15.63;;;10.50;99.90;;;;;;5108241;28;20063;-73
2021/12/13 09:52:23;;;;;;;25.70;16.40;;;10.50;99.90;;;;;;5105790;28;20035;-73
2021/12/13 09:54:57;;;;;;;25.77;17.23;;;10.60;99.90;;;;;;5107641;28;20380;-74
2021/12/13 09:57:33;;;;;;;24.63;17.50;;;10.30;99.90;;;;;;5089770;28;20040;-74
2021/12/13 10:00:00;;;;;;;24.45;16.38;;;10.10;99.90;;;;;;5108222;28;20043;-72
2021/12/13 10:02:34;;;;;;;25.85;16.88;;;10.20;99.90;;;;;;5105256;28;20841;-73
2021/12/13 10:05:04;;;;;;;27.08;16.30;;;10.40;99.90;;;;;;5106610;28;20043;-73
2021/12/13 10:07:33;;;;;;;23.08;16.10;;;10.10;99.90;;;;;;5107209;28;20055;-72
2021/12/13 10:10:06;;;;;;;21.60;14.52;;;10.50;99.90;;;;;;5106606;28;20483;-73
2021/12/13 10:12:39;;;;;;;25.30;15.40;;;10.40;99.90;;;;;;5101815;28;20098;-73
2021/12/13 10:15:11;;;;;;;22.85;14.40;;;10.10;99.90;;;;;;5093971;28;20039;-73
2021/12/13 10:17:42;;;;;;;23.15;15.27;;;10.40;99.90;;;;;;5100591;28;20039;-74
2021/12/13 10:20:26;;;;;;;21.48;14.63;;;10.10;99.90;;;;;;5102623;28;20534;-73
2021/12/13 10:22:52;;;;;;;20.27;14.30;;;10.20;99.90;;;;;;5079668;28;20857;-73
2021/12/13 10:25:28;;;;;;;21.90;14.57;;;10.30;99.90;;;;;;5082658;28;20044;-73
2021/12/13 10:27:55;;;;;;;19.98;14.43;;;10.20;99.90;;;;;;5100619;28;20075;-72
2021/12/13 10:30:43;;;;;;;21.30;14.10;;;10.20;99.90;;;;;;5098518;28;20039;-74
2021/12/13 10:33:10;;;;;;;27.55;13.95;;;10.30;99.90;;;;;;5083351;28;20047;-73
2021/12/13 10:35:39;;;;;;;18.95;13.63;;;10.10;99.90;;;;;;5080700;28;20126;-74
2021/12/13 10:38:23;;;;;;;19.45;13.98;;;10.30;99.90;;;;;;5101413;28;20040;-73
2021/12/13 10:41:05;;;;;;;24.63;14.63;;;10.20;99.90;;;;;;5101003;28;20107;-73
2021/12/13 10:43:41;;;;;;;21.83;13.77;;;10.30;99.90;;;;;;5100585;28;20207;-73
2021/12/13 10:46:12;;;;;;;19.40;13.75;;;10.30;99.90;;;;;;5100168;28;20048;-74
2021/12/13 10:48:45;;;;;;;18.52;12.48;;;10.40;99.90;;;;;;5101500;28;20166;-73
2021/12/13 10:51:21;;;;;;;19.85;13.52;;;10.40;99.90;;;;;;5103794;28;20503;-73
2021/12/13 10:53:52;;;;;;;20.35;13.20;;;10.40;99.90;;;;;;5074954;28;20060;-73
2021/12/13 10:56:31;;;;;;;19.25;12.80;;;10.40;99.90;;;;;;5105675;28;20357;-72
2021/12/13 10:59:00;;;;;;;18.77;12.00;;;10.30;99.90;;;;;;5103990;28;20146;-72
2021/12/13 11:01:32;;;;;;;16.42;11.98;;;10.20;99.90;;;;;;5104814;28;20116;-72
2021/12/13 11:04:00;;;;;;;18.75;11.85;;;10.40;99.90;;;;;;5103116;28;20052;-72
2021/12/13 11:06:26;;;;;;;16.58;11.73;;;10.20;99.90;;;;;;5104381;28;20821;-74
2021/12/13 11:08:52;;;;;;;16.95;11.65;;;10.30;99.90;;;;;;5105559;28;20065;-73
2021/12/13 11:11:36;;;;;;;20.42;11.63;;;10.40;99.90;;;;;;5105042;28;20044;-73
2021/12/13 11:14:05;;;;;;;16.85;12.15;;;10.30;99.90;;;;;;5088029;28;20461;-72
2021/12/13 11:16:36;;;;;;;17.77;11.23;;;10.30;99.90;;;;;;5102755;28;20490;-73
2021/12/13 11:19:07;;;;;;;21.27;11.93;;;10.30;99.90;;;;;;5106017;28;20027;-73
2021/12/13 11:21:36;;;;;;;20.38;12.23;;;10.30;99.90;;;;;;5104588;28;20487;-72
2021/12/13 11:24:06;;;;;;;15.70;10.95;;;10.30;99.90;;;;;;5104973;28;20078;-73
2021/12/13 11:26:35;;;;;;;14.18;11.43;;;10.30;99.90;;;;;;5101481;28;20043;-74
2021/12/13 11:29:02;;;;;;;16.75;11.80;;;10.30;99.90;;;;;;5102909;28;20040;-72
2021/12/13 11:31:31;;;;;;;17.48;11.60;;;10.40;99.90;;;;;;5104215;28;20055;-73
2021/12/13 11:34:03;;;;;;;17.88;11.55;;;10.40;99.90;;;;;;5104542;28;20044;-74
2021/12/13 11:37:11;;;;;;;19.38;11.77;;;10.20;99.90;;;;;;5092509;28;20063;-75
2021/12/13 11:40:14;;;;;;;18.00;11.52;;;10.30;99.90;;;;;;5105915;28;20040;-78
2021/12/13 11:43:24;;;;;;;17.45;11.50;;;10.30;99.90;;;;;;5104302;28;20805;-72
2021/12/13 11:46:05;;;;;;;16.27;12.25;;;10.40;99.90;;;;;;5100786;28;20054;-72
2021/12/13 11:49:08;;;;;;;19.30;11.60;;;10.40;99.90;;;;;;5104894;28;20043;-73
2021/12/13 11:51:57;;;;;;;21.52;12.88;;;10.40;99.90;;;;;;5105059;28;20047;-73
2021/12/13 11:55:04;;;;;;;19.80;13.10;;;10.30;99.90;;;;;;5094037;28;20052;-73
2021/12/13 11:57:57;;;;;;;17.63;11.25;;;10.30;99.90;;;;;;5104799;28;20047;-72
2021/12/13 12:00:47;;;;;;;17.70;11.27;;;10.40;99.90;;;;;;5105929;28;20175;-73
2021/12/13 12:03:44;;;;;;;17.77;11.85;;;10.30;99.90;;;;;;5087090;28;20043;-72
2021/12/13 12:06:44;;;;;;;17.55;11.13;;;10.50;99.90;;;;;;5106067;28;20039;-74
2021/12/13 12:09:40;;;;;;;20.88;12.38;;;10.50;99.90;;;;;;5100707;28;20398;-73
2021/12/13 12:12:13;;;;;;;16.73;11.45;;;10.40;99.90;;;;;;5094734;28;20043;-73
2021/12/13 12:14:38;;;;;;;19.00;12.40;;;10.40;99.90;;;;;;5104391;28;20075;-73
2021/12/13 12:17:06;;;;;;;18.50;11.90;;;10.40;99.90;;;;;;5103508;28;20071;-73
2021/12/13 12:19:36;;;;;;;18.02;12.20;;;10.40;99.90;;;;;;5102606;28;20043;-73
2021/12/13 12:22:15;;;;;;;17.27;11.77;;;10.40;99.90;;;;;;5105062;28;20611;-72
2021/12/13 12:24:50;;;;;;;17.30;11.73;;;10.50;99.90;;;;;;5104788;28;20060;-72
2021/12/13 12:27:21;;;;;;;16.65;11.25;;;10.60;99.90;;;;;;5105246;28;20055;-72
2021/12/13 12:29:54;;;;;;;21.85;12.30;;;10.50;99.90;;;;;;5103905;28;20139;-72
2021/12/13 12:32:34;;;;;;;18.92;12.02;;;10.60;99.90;;;;;;5104858;28;20558;-73
2021/12/13 12:35:03;;;;;;;18.73;13.20;;;10.60;99.90;;;;;;5104611;28;20360;-74
2021/12/13 12:37:31;;;;;;;25.80;13.20;;;10.50;99.90;;;;;;5106011;28;20367;-73
2021/12/13 12:40:09;;;;;;;20.52;12.90;;;10.60;99.90;;;;;;5103080;28;20061;-73
2021/12/13 12:42:42;;;;;;;19.95;12.85;;;10.50;99.90;;;;;;5104503;28;20043;-73
2021/12/13 12:45:21;;;;;;;20.85;13.57;;;10.50;99.90;;;;;;5105047;28;20036;-73
2021/12/13 12:47:50;;;;;;;22.98;14.55;;;10.50;99.90;;;;;;5104034;28;20043;-73
2021/12/13 12:50:16;;;;;;;23.30;13.80;;;10.30;99.90;;;;;;5103246;28;20704;-74
2021/12/13 12:52:50;;;;;;;19.05;12.93;;;10.50;99.90;;;;;;5102343;28;20151;-72
2021/12/13 12:55:20;;;;;;;24.35;13.43;;;10.20;99.90;;;;;;5092331;28;20848;-72
2021/12/13 12:57:47;;;;;;;26.02;13.98;;;10.30;99.90;;;;;;5089074;28;20058;-72
2021/12/13 13:00:14;;;;;;;21.02;14.02;;;10.60;99.90;;;;;;5094908;28;20043;-72
2021/12/13 13:02:40;;;;;;;18.98;12.90;;;10.40;99.90;;;;;;5079713;28;20490;-72
2021/12/13 13:05:09;;;;;;;22.90;14.60;;;10.50;99.90;;;;;;5088146;28;20051;-72
2021/12/13 13:07:37;;;;;;;27.48;13.80;;;10.50;99.90;;;;;;5104905;28;20115;-73
2021/12/13 13:13:00;;;;;;;25.00;14.00;;;10.50;99.90;;;;;;5083174;28;20052;-72
2021/12/13 13:15:55;;;;;;;23.73;14.60;;;10.80;99.90;;;;;;5103260;28;20051;-73
2021/12/13 13:18:26;;;;;;;25.25;13.95;;;10.70;99.90;;;;;;5097706;28;20455;-73
2021/12/13 13:20:59;;;;;;;21.80;14.65;;;10.70;99.90;;;;;;5101723;28;20050;-72